ADDS TAF Board (Experimental) INFO

IDs: Format: Expanded Condensed

Updated at: 2118 UTC 02 Sep 2014

KPHX - Phoenix/Sky Harbor, AZ, US

Issued at 2110 UTC 02 Sep 2014
Time2051Z02/22Z02/23Z03/00Z03/01Z03/02Z03/03Z03/04Z03/05Z03/06Z03/07Z03/08Z03/09Z03/10Z
TypeOBSPRVLPRVLPRVLPRVLPRVLPRVLPRVLPRVLPRVLPRVLPRVLPRVLPRVL
VIS10>6>6>6>6>6>6>6>6>6>6>6>6>6
CIG----------------------------
CoverFEWSKCSKCSKCSKCSKCSKCSKCSKCSKCSKCSKCSKCSKC
FltCat--VFRVFRVFRVFRVFRVFRVFRVFRVFRVFRVFRVFRVFR
WX----------------------------
WDir30VRB240240240240VRBVRBVRBVRBVRBVRBVRB110
WSpd36999955555556
WGst----------------------------
R07/25
XWnd3VRB-4-4-4-4VRBVRBVRBVRBVRBVRBVRB-2
HWnd2VRB-8-8-8-8VRBVRBVRBVRBVRBVRBVRB6
R08/26
XWnd3VRB-4-4-4-4VRBVRBVRBVRBVRBVRBVRB-2
HWnd2VRB-8-8-8-8VRBVRBVRBVRBVRBVRBVRB6
Raw TAF
KPHX 022110Z 0221/0318 VRB06KT P6SM SKC
  FM022300 24009KT P6SM SKC
  FM030300 VRB05KT P6SM SKC
  FM031000 11006KT P6SM SKC


Raw METAR
KPHX 022051Z COR 03003KT 10SM FEW120 FEW250 41/06 A2976 RMK AO2 SLP055 T04110056 58026

TAF Board Legend

Hazard VFR MVFR IFR LIFR
Visibility (sm) >5 3≤X≤5 1≤X<3 <1
Ceiling (100 ft) >30 10≤X≤30 5≤X<10 <5
Wind Speed (kt) <10 10≤X<20 20≤X<30 ≥30
Wind Gust (kt) <15 15≤X<25 25≤X<35 ≥35
Weather No Wx Reported VCTS,-TS,-FZRA TS,FZRA +TS,+FZRA


Page loaded:  21:18 UTC  |   02:18 PM Pacific  |   03:18 PM Mountain  |   04:18 PM Central  |   05:18 PM Eastern

 

ADVISORIES

FORECASTS

FORECASTS

OBSERVATIONS

USER TOOLS

ABOUT US